createdAt,value
2019-02-23T00:01:13.163Z,1.90
2019-02-23T00:03:42.669Z,2.20
2019-02-23T00:06:12.377Z,2.63
2019-02-23T00:08:42.119Z,2.97
2019-02-23T00:11:11.756Z,2.63
2019-02-23T00:13:41.305Z,2.50
2019-02-23T00:16:11.199Z,2.90
2019-02-23T00:18:41.116Z,2.50
2019-02-23T00:21:10.731Z,3.00
2019-02-23T00:23:40.409Z,3.00
2019-02-23T00:26:10.333Z,2.70
2019-02-23T00:28:39.997Z,3.13
2019-02-23T00:31:09.745Z,3.00
2019-02-23T00:33:39.809Z,2.80
2019-02-23T00:36:09.448Z,3.00
2019-02-23T00:38:39.218Z,3.57
2019-02-23T00:41:10.835Z,3.23
2019-02-23T00:43:40.617Z,3.97
2019-02-23T00:46:10.510Z,2.80
2019-02-23T00:48:40.128Z,3.47
2019-02-23T00:51:09.743Z,3.63
2019-02-23T00:53:39.366Z,3.97
2019-02-23T00:56:09.101Z,3.50
2019-02-23T00:58:38.828Z,3.40
2019-02-23T01:01:08.556Z,4.00
2019-02-23T01:03:38.211Z,3.80
2019-02-23T01:06:07.900Z,3.67
2019-02-23T01:08:37.607Z,2.90
2019-02-23T01:11:07.459Z,3.03
2019-02-23T01:13:36.984Z,3.30
2019-02-23T01:16:06.507Z,3.60
2019-02-23T01:18:36.074Z,3.83
2019-02-23T01:21:06.034Z,3.37
2019-02-23T01:23:35.549Z,3.83
2019-02-23T01:26:05.222Z,3.90
2019-02-23T01:28:34.922Z,3.30
2019-02-23T01:31:04.642Z,4.20
2019-02-23T01:33:34.294Z,3.30
2019-02-23T01:36:04.024Z,3.60
2019-02-23T01:38:33.438Z,4.50
2019-02-23T01:41:03.138Z,3.43
2019-02-23T01:43:32.983Z,3.70
2019-02-23T01:46:02.727Z,3.90
2019-02-23T01:48:32.205Z,3.87
2019-02-23T01:51:03.613Z,3.80
2019-02-23T01:53:33.249Z,3.80
2019-02-23T01:56:02.954Z,3.53
2019-02-23T01:58:32.795Z,3.83
2019-02-23T02:01:02.720Z,3.83
2019-02-23T02:03:32.418Z,3.70
2019-02-23T02:06:02.073Z,3.70
2019-02-23T02:08:31.983Z,3.80
2019-02-23T02:11:01.698Z,3.57
2019-02-23T02:13:33.236Z,3.43
2019-02-23T02:16:02.830Z,3.50
2019-02-23T02:18:32.396Z,4.00
2019-02-23T02:21:02.129Z,3.73
2019-02-23T02:23:31.854Z,3.87
2019-02-23T02:26:01.395Z,3.93
2019-02-23T02:28:33.154Z,4.03
2019-02-23T02:31:02.781Z,3.13
2019-02-23T02:33:32.551Z,3.57
2019-02-23T02:36:02.242Z,3.70
2019-02-23T02:38:31.801Z,4.00
2019-02-23T02:41:03.537Z,3.87
2019-02-23T02:43:32.897Z,4.00
2019-02-23T02:46:02.479Z,3.40
2019-02-23T02:48:32.152Z,3.57
2019-02-23T02:51:01.816Z,4.27
2019-02-23T02:53:31.604Z,3.33
2019-02-23T02:56:01.173Z,3.37
2019-02-23T02:58:30.959Z,3.47
2019-02-23T03:01:00.689Z,3.60
2019-02-23T03:03:32.314Z,4.10
2019-02-23T03:06:01.967Z,4.30
2019-02-23T03:08:31.704Z,3.73
2019-02-23T03:11:01.304Z,3.70
2019-02-23T03:13:30.949Z,4.27
2019-02-23T03:16:00.639Z,4.70
2019-02-23T03:18:30.302Z,4.07
2019-02-23T03:21:00.011Z,4.00
2019-02-23T03:23:29.756Z,3.90
2019-02-23T03:25:59.415Z,3.97
2019-02-23T03:28:28.945Z,3.70
2019-02-23T03:30:58.628Z,4.07
2019-02-23T03:33:28.254Z,3.63
2019-02-23T03:35:58.079Z,4.00
2019-02-23T03:38:27.809Z,4.00
2019-02-23T03:40:57.483Z,4.43
2019-02-23T03:43:27.351Z,4.67
2019-02-23T03:45:56.891Z,4.63
2019-02-23T03:48:27.795Z,4.33
2019-02-23T03:50:57.524Z,4.77
2019-02-23T03:53:27.314Z,4.23
2019-02-23T03:55:56.963Z,4.37
2019-02-23T03:58:26.711Z,4.40
2019-02-23T04:00:56.331Z,4.30
2019-02-23T04:03:26.052Z,4.83
2019-02-23T04:05:55.616Z,4.57
2019-02-23T04:08:25.321Z,4.57
2019-02-23T04:10:54.927Z,4.10
2019-02-23T04:13:24.570Z,4.07
2019-02-23T04:15:55.468Z,4.60
2019-02-23T04:18:25.183Z,4.77
2019-02-23T04:21:01.680Z,4.33
2019-02-23T04:23:26.335Z,4.50
2019-02-23T04:25:55.962Z,4.53
2019-02-23T04:28:25.598Z,4.23
2019-02-23T04:30:55.410Z,3.90
2019-02-23T04:33:24.870Z,4.20
2019-02-23T04:35:54.493Z,4.43
2019-02-23T04:38:24.084Z,4.83
2019-02-23T04:40:53.742Z,4.03
2019-02-23T04:43:23.374Z,4.07
2019-02-23T04:45:53.078Z,3.50
2019-02-23T04:48:22.735Z,12.73
2019-02-23T04:50:52.471Z,8.70
2019-02-23T04:53:22.200Z,17.43
2019-02-23T04:55:51.914Z,9.33
2019-02-23T04:58:21.674Z,6.13
2019-02-23T05:00:51.266Z,7.83
2019-02-23T05:03:20.983Z,7.13
2019-02-23T05:05:50.733Z,5.40
2019-02-23T05:08:20.338Z,6.93
2019-02-23T05:10:49.958Z,4.67
2019-02-23T05:13:19.585Z,5.23
2019-02-23T05:15:49.307Z,4.80
2019-02-23T05:18:18.923Z,5.00
2019-02-23T05:20:48.386Z,7.07
2019-02-23T05:23:17.873Z,8.50
2019-02-23T05:25:47.641Z,5.63
2019-02-23T05:28:17.341Z,6.03
2019-02-23T05:30:47.156Z,5.77
2019-02-23T05:33:16.866Z,6.33
2019-02-23T05:35:46.516Z,4.90
2019-02-23T05:38:16.144Z,5.57
2019-02-23T05:40:45.769Z,5.77
2019-02-23T05:43:15.398Z,5.97
2019-02-23T05:45:45.018Z,6.60
2019-02-23T05:48:16.419Z,5.10
2019-02-23T05:50:46.107Z,4.53
2019-02-23T05:53:15.622Z,5.60
2019-02-23T05:55:45.395Z,7.67
2019-02-23T05:58:15.002Z,4.53
2019-02-23T06:00:44.676Z,5.07
2019-02-23T06:03:14.410Z,6.53
2019-02-23T06:05:44.285Z,4.60
2019-02-23T06:08:13.986Z,6.10
2019-02-23T06:10:44.809Z,5.03
2019-02-23T06:13:14.482Z,3.87
2019-02-23T06:15:44.046Z,4.93
2019-02-23T06:18:13.835Z,4.10
2019-02-23T06:20:43.301Z,3.93
2019-02-23T06:23:12.989Z,3.53
2019-02-23T06:25:42.599Z,4.27
2019-02-23T06:28:12.159Z,4.47
2019-02-23T06:30:41.820Z,4.03
2019-02-23T06:33:11.447Z,4.10
2019-02-23T06:35:41.092Z,4.83
2019-02-23T06:38:10.770Z,4.43
2019-02-23T06:40:40.409Z,9.17
2019-02-23T06:43:10.008Z,6.00
2019-02-23T06:45:39.573Z,3.70
2019-02-23T06:48:09.063Z,4.27
2019-02-23T06:50:38.783Z,3.60
2019-02-23T06:53:08.561Z,3.70
2019-02-23T06:55:38.292Z,4.17
2019-02-23T06:58:07.789Z,3.90
2019-02-23T07:00:37.453Z,3.43
2019-02-23T07:03:07.054Z,5.57
2019-02-23T07:05:36.680Z,3.67
2019-02-23T07:08:06.398Z,3.03
2019-02-23T07:10:36.034Z,6.73
2019-02-23T07:13:05.618Z,4.50
2019-02-23T07:15:35.347Z,4.27
2019-02-23T07:18:05.068Z,4.40
2019-02-23T07:20:43.649Z,3.37
2019-02-23T07:23:06.301Z,3.53
2019-02-23T07:25:36.007Z,3.97
2019-02-23T07:28:06.850Z,3.80
2019-02-23T07:30:36.767Z,4.30
2019-02-23T07:33:06.335Z,3.57
2019-02-23T07:35:36.301Z,5.00
2019-02-23T07:38:06.272Z,5.03
2019-02-23T07:40:36.022Z,4.60
2019-02-23T07:43:05.878Z,3.77
2019-02-23T07:45:35.442Z,2.90
2019-02-23T07:48:05.254Z,3.63
2019-02-23T07:50:35.092Z,2.70
2019-02-23T07:53:04.885Z,2.73
2019-02-23T07:55:34.471Z,3.17
2019-02-23T07:58:03.974Z,4.90
2019-02-23T08:00:33.588Z,3.43
2019-02-23T08:03:03.223Z,3.13
2019-02-23T08:05:32.674Z,3.40
2019-02-23T08:08:02.096Z,4.47
2019-02-23T08:10:31.717Z,3.33
2019-02-23T08:13:01.360Z,3.60
2019-02-23T08:15:31.010Z,3.23
2019-02-23T08:18:00.555Z,3.27
2019-02-23T08:20:30.192Z,2.93
2019-02-23T08:22:59.852Z,2.87
2019-02-23T08:25:29.551Z,2.70
2019-02-23T08:28:00.460Z,2.70
2019-02-23T08:30:30.183Z,2.60
2019-02-23T08:32:59.911Z,2.60
2019-02-23T08:35:29.414Z,2.60
2019-02-23T08:37:59.103Z,2.50
2019-02-23T08:40:30.055Z,2.57
2019-02-23T08:42:59.833Z,2.40
2019-02-23T08:45:29.494Z,2.90
2019-02-23T08:47:59.180Z,2.43
2019-02-23T08:50:28.905Z,2.77
2019-02-23T08:52:58.539Z,3.23
2019-02-23T08:55:28.051Z,3.67
2019-02-23T08:57:57.719Z,3.77
2019-02-23T09:00:27.472Z,4.87
2019-02-23T09:02:57.996Z,3.10
2019-02-23T09:05:27.743Z,3.60
2019-02-23T09:07:57.512Z,3.83
2019-02-23T09:10:27.248Z,3.67
2019-02-23T09:12:56.762Z,3.40
2019-02-23T09:15:26.497Z,3.00
2019-02-23T09:17:56.161Z,3.00
2019-02-23T09:20:29.079Z,3.03
2019-02-23T09:23:00.476Z,3.93
2019-02-23T09:25:28.874Z,3.47
2019-02-23T09:27:58.543Z,3.80
2019-02-23T09:30:28.387Z,3.80
2019-02-23T09:32:58.155Z,3.13
2019-02-23T09:35:27.872Z,3.20
2019-02-23T09:37:57.595Z,3.70
2019-02-23T09:40:27.132Z,4.07
2019-02-23T09:42:56.811Z,3.83
2019-02-23T09:45:26.466Z,4.27
2019-02-23T09:47:56.085Z,3.73
2019-02-23T09:50:25.767Z,4.30
2019-02-23T09:52:55.667Z,4.60
2019-02-23T09:55:25.368Z,4.07
2019-02-23T09:57:55.059Z,4.23
2019-02-23T10:00:24.838Z,5.30
2019-02-23T10:02:54.366Z,4.33
2019-02-23T10:05:24.114Z,3.87
2019-02-23T10:07:53.682Z,3.73
2019-02-23T10:10:23.568Z,4.17
2019-02-23T10:12:53.247Z,3.70
2019-02-23T10:15:23.108Z,3.37
2019-02-23T10:17:52.874Z,3.50
2019-02-23T10:20:22.542Z,3.10
2019-02-23T10:22:52.195Z,3.13
2019-02-23T10:25:21.958Z,3.43
2019-02-23T10:27:51.737Z,3.90
2019-02-23T10:30:21.325Z,3.00
2019-02-23T10:32:51.103Z,3.57
2019-02-23T10:35:20.740Z,5.90
2019-02-23T10:37:50.310Z,6.93
2019-02-23T10:40:19.960Z,3.70
2019-02-23T10:42:49.488Z,3.83
2019-02-23T10:45:19.545Z,7.07
2019-02-23T10:47:50.253Z,4.70
2019-02-23T10:50:20.373Z,3.00
2019-02-23T10:52:50.116Z,3.03
2019-02-23T10:55:19.787Z,3.70
2019-02-23T10:57:50.715Z,4.30
2019-02-23T11:00:21.974Z,3.20
2019-02-23T11:02:51.988Z,3.00
2019-02-23T11:05:21.789Z,3.20
2019-02-23T11:07:51.659Z,3.00
2019-02-23T11:10:23.722Z,2.63
2019-02-23T11:12:53.479Z,2.67
2019-02-23T11:15:23.124Z,2.50
2019-02-23T11:17:53.054Z,2.67
2019-02-23T11:20:23.332Z,3.10
2019-02-23T11:22:53.200Z,2.90
2019-02-23T11:25:22.910Z,2.80
2019-02-23T11:27:53.296Z,2.30
2019-02-23T11:30:22.960Z,2.20
2019-02-23T11:32:52.618Z,2.27
2019-02-23T11:35:22.207Z,2.57
2019-02-23T11:37:53.099Z,2.40
2019-02-23T11:40:23.642Z,2.47
2019-02-23T11:42:53.319Z,2.37
2019-02-23T11:45:23.127Z,6.37
2019-02-23T11:47:52.773Z,5.73
2019-02-23T11:50:22.514Z,2.43
2019-02-23T11:52:52.286Z,2.63
2019-02-23T11:55:21.956Z,2.90
2019-02-23T11:57:51.686Z,2.93
2019-02-23T12:00:21.411Z,3.33
2019-02-23T12:02:52.776Z,2.80
2019-02-23T12:05:22.710Z,2.93
2019-02-23T12:07:52.434Z,3.00
2019-02-23T12:10:22.235Z,7.20
2019-02-23T12:12:51.853Z,3.70
2019-02-23T12:15:21.323Z,3.50
2019-02-23T12:17:51.079Z,3.47
2019-02-23T12:20:20.973Z,3.43
2019-02-23T12:22:50.738Z,3.20
2019-02-23T12:25:20.336Z,3.03
2019-02-23T12:27:49.854Z,2.70
2019-02-23T12:30:19.573Z,2.67
2019-02-23T12:32:49.491Z,3.00
2019-02-23T12:35:19.248Z,3.07
2019-02-23T12:37:49.006Z,3.50
2019-02-23T12:40:18.762Z,3.10
2019-02-23T12:42:48.563Z,3.07
2019-02-23T12:45:18.095Z,2.63
2019-02-23T12:47:47.709Z,3.37
2019-02-23T12:50:17.323Z,3.30
2019-02-23T12:52:47.016Z,3.43
2019-02-23T12:55:16.667Z,3.03
2019-02-23T12:57:46.266Z,3.83
2019-02-23T13:00:16.021Z,4.90
2019-02-23T13:02:45.692Z,3.27
2019-02-23T13:05:15.284Z,3.10
2019-02-23T13:07:44.874Z,2.90
2019-02-23T13:10:14.585Z,2.80
2019-02-23T13:13:03.056Z,3.53
2019-02-23T13:15:53.801Z,3.50
2019-02-23T13:19:06.820Z,3.57
2019-02-23T13:21:56.333Z,3.10
2019-02-23T13:25:12.903Z,3.27
2019-02-23T13:28:19.070Z,3.50
2019-02-23T13:31:44.554Z,3.17
2019-02-23T13:34:44.995Z,3.70
2019-02-23T13:38:01.561Z,3.30
2019-02-23T13:41:13.392Z,5.93
2019-02-23T13:44:22.297Z,3.80
2019-02-23T13:47:37.542Z,3.53
2019-02-23T13:50:30.940Z,3.30
2019-02-23T13:53:56.543Z,3.00
2019-02-23T13:56:36.822Z,3.20
2019-02-23T13:59:29.033Z,2.97
2019-02-23T14:02:31.398Z,2.80
2019-02-23T14:05:23.487Z,3.60
2019-02-23T14:08:12.855Z,3.53
2019-02-23T14:11:23.232Z,3.57
2019-02-23T14:14:41.812Z,4.07
2019-02-23T14:17:36.169Z,8.37
2019-02-23T14:20:54.598Z,3.57
2019-02-23T14:23:54.403Z,3.40
2019-02-23T14:27:13.585Z,3.73
2019-02-23T14:30:28.008Z,3.83
2019-02-23T14:33:34.385Z,3.33
2019-02-23T14:36:13.615Z,3.70
2019-02-23T14:39:35.236Z,4.20
2019-02-23T14:42:41.739Z,4.50
2019-02-23T14:45:36.945Z,3.83
2019-02-23T14:48:46.469Z,3.60
2019-02-23T14:51:52.907Z,4.10
2019-02-23T14:55:01.009Z,4.07
2019-02-23T14:58:05.950Z,4.27
2019-02-23T15:01:17.432Z,4.37
2019-02-23T15:04:52.358Z,3.83
2019-02-23T15:08:30.353Z,3.53
2019-02-23T15:11:40.914Z,3.90
2019-02-23T15:14:56.679Z,4.50
2019-02-23T15:18:10.028Z,4.30
2019-02-23T15:21:28.687Z,4.20
2019-02-23T15:24:36.257Z,4.73
2019-02-23T15:27:45.481Z,4.33
2019-02-23T15:30:50.268Z,3.97
2019-02-23T15:33:56.785Z,4.20
2019-02-23T15:37:00.171Z,5.67
2019-02-23T15:39:45.504Z,6.47
2019-02-23T15:42:56.473Z,7.20
2019-02-23T15:46:03.969Z,5.57
2019-02-23T15:49:28.441Z,5.37
2019-02-23T15:52:01.532Z,11.43
2019-02-23T15:54:32.743Z,6.73
2019-02-23T15:57:02.451Z,7.83
2019-02-23T15:59:31.992Z,5.90
2019-02-23T16:02:01.765Z,5.30
2019-02-23T16:04:31.377Z,5.40
2019-02-23T16:07:01.005Z,6.23
2019-02-23T16:09:30.621Z,5.33
2019-02-23T16:12:00.245Z,5.37
2019-02-23T16:14:29.955Z,5.37
2019-02-23T16:16:59.580Z,6.50
2019-02-23T16:19:29.301Z,10.17
2019-02-23T16:21:58.956Z,7.90
2019-02-23T16:24:28.652Z,6.20
2019-02-23T16:26:58.462Z,5.33
2019-02-23T16:29:28.374Z,5.40
2019-02-23T16:31:57.962Z,4.87
2019-02-23T16:34:27.646Z,4.47
2019-02-23T16:36:57.361Z,3.77
2019-02-23T16:39:27.038Z,4.10
2019-02-23T16:41:56.829Z,3.37
2019-02-23T16:44:26.445Z,4.90
2019-02-23T16:46:56.236Z,4.40
2019-02-23T16:49:25.985Z,4.33
2019-02-23T16:51:55.559Z,3.70
2019-02-23T16:54:25.392Z,3.80
2019-02-23T16:56:55.125Z,4.07
2019-02-23T16:59:24.644Z,3.73
2019-02-23T17:01:54.407Z,4.43
2019-02-23T17:04:24.313Z,4.37
2019-02-23T17:06:53.938Z,4.67
2019-02-23T17:09:25.662Z,5.70
2019-02-23T17:11:54.865Z,4.47
2019-02-23T17:14:24.535Z,5.30
2019-02-23T17:16:54.168Z,6.10
2019-02-23T17:19:23.736Z,5.67
2019-02-23T17:21:53.600Z,4.70
2019-02-23T17:24:23.421Z,5.00
2019-02-23T17:26:53.321Z,6.47
2019-02-23T17:29:22.861Z,6.50
2019-02-23T17:31:52.390Z,6.03
2019-02-23T17:34:22.050Z,10.00
2019-02-23T17:36:51.704Z,13.07
2019-02-23T17:39:24.380Z,16.93
2019-02-23T17:41:55.324Z,15.37
2019-02-23T17:44:25.237Z,16.00
2019-02-23T17:46:58.017Z,21.47
2019-02-23T17:49:27.584Z,25.70
2019-02-23T17:51:57.311Z,24.40
2019-02-23T17:54:27.010Z,19.83
2019-02-23T17:56:56.772Z,16.47
2019-02-23T17:59:26.462Z,16.80
2019-02-23T18:01:56.330Z,13.70
2019-02-23T18:04:26.058Z,13.53
2019-02-23T18:06:55.832Z,16.40
2019-02-23T18:09:25.402Z,17.83
2019-02-23T18:11:54.978Z,26.60
2019-02-23T18:14:24.759Z,31.47
2019-02-23T18:16:54.565Z,33.20
2019-02-23T18:19:24.326Z,29.77
2019-02-23T18:21:53.947Z,38.43
2019-02-23T18:24:23.658Z,34.13
2019-02-23T18:26:53.339Z,32.43
2019-02-23T18:29:23.072Z,37.43
2019-02-23T18:31:52.852Z,44.40
2019-02-23T18:34:22.538Z,39.20
2019-02-23T18:36:52.009Z,38.30
2019-02-23T18:39:21.783Z,37.13
2019-02-23T18:41:51.534Z,37.90
2019-02-23T18:44:21.251Z,38.77
2019-02-23T18:46:50.858Z,35.23
2019-02-23T18:49:20.587Z,34.13
2019-02-23T18:51:50.431Z,36.43
2019-02-23T18:54:21.269Z,36.30
2019-02-23T18:56:51.320Z,32.60
2019-02-23T18:59:20.932Z,32.43
2019-02-23T19:01:50.583Z,31.87
2019-02-23T19:04:20.307Z,35.57
2019-02-23T19:06:49.949Z,32.17
2019-02-23T19:09:19.576Z,33.43
2019-02-23T19:11:49.350Z,33.13
2019-02-23T19:14:19.282Z,38.53
2019-02-23T19:16:49.073Z,38.87
2019-02-23T19:19:18.565Z,38.30
2019-02-23T19:21:48.391Z,44.20
2019-02-23T19:24:18.148Z,47.43
2019-02-23T19:26:47.852Z,44.03
2019-02-23T19:29:17.543Z,58.60
2019-02-23T19:31:47.345Z,36.80
2019-02-23T19:34:19.090Z,34.93
2019-02-23T19:36:48.738Z,41.10
2019-02-23T19:39:18.548Z,34.53
2019-02-23T19:41:49.151Z,30.77
2019-02-23T19:44:18.781Z,31.93
2019-02-23T19:46:52.306Z,28.90
2019-02-23T19:49:22.135Z,23.17
2019-02-23T19:51:51.745Z,24.57
2019-02-23T19:54:21.612Z,27.30
2019-02-23T19:56:51.219Z,28.90
2019-02-23T19:59:20.870Z,25.20
2019-02-23T20:01:50.432Z,18.17
2019-02-23T20:04:20.286Z,25.00
2019-02-23T20:06:49.920Z,24.20
2019-02-23T20:09:19.714Z,29.80
2019-02-23T20:11:50.829Z,25.63
2019-02-23T20:14:20.418Z,29.70
2019-02-23T20:16:50.073Z,27.50
2019-02-23T20:19:19.837Z,23.50
2019-02-23T20:21:49.539Z,16.93
2019-02-23T20:24:19.157Z,17.20
2019-02-23T20:26:55.439Z,22.80
2019-02-23T20:29:20.525Z,21.03
2019-02-23T20:31:50.134Z,19.70
2019-02-23T20:34:19.745Z,20.27
2019-02-23T20:36:49.738Z,21.67
2019-02-23T20:39:19.463Z,16.17
2019-02-23T20:41:49.027Z,17.43
2019-02-23T20:44:18.723Z,15.53
2019-02-23T20:46:48.329Z,14.47
2019-02-23T20:49:18.122Z,18.33
2019-02-23T20:51:47.745Z,18.70
2019-02-23T20:54:17.625Z,24.50
2019-02-23T20:56:47.196Z,16.90
2019-02-23T20:59:18.316Z,19.70
2019-02-23T21:01:47.799Z,19.73
2019-02-23T21:04:17.609Z,27.87
2019-02-23T21:06:47.483Z,29.00
2019-02-23T21:09:17.179Z,31.87
2019-02-23T21:11:46.748Z,24.87
2019-02-23T21:14:16.404Z,18.57
2019-02-23T21:16:46.090Z,19.63
2019-02-23T21:19:17.140Z,19.80
2019-02-23T21:21:46.761Z,25.40
2019-02-23T21:24:17.543Z,23.17
2019-02-23T21:26:47.398Z,22.47
2019-02-23T21:29:16.968Z,26.23
2019-02-23T21:31:46.696Z,24.13
2019-02-23T21:34:16.283Z,23.90
2019-02-23T21:36:45.854Z,23.30
2019-02-23T21:39:15.576Z,19.37
2019-02-23T21:41:45.155Z,20.20
2019-02-23T21:44:14.796Z,19.93
2019-02-23T21:46:44.494Z,17.53
2019-02-23T21:49:14.150Z,16.03
2019-02-23T21:51:45.900Z,18.30
2019-02-23T21:54:15.741Z,16.13
2019-02-23T21:56:45.413Z,19.33
2019-02-23T21:59:15.129Z,14.73
2019-02-23T22:01:44.722Z,16.20
2019-02-23T22:04:14.425Z,15.30
2019-02-23T22:06:44.166Z,13.63
2019-02-23T22:09:13.841Z,15.43
2019-02-23T22:11:43.752Z,13.40
2019-02-23T22:14:13.340Z,15.90
2019-02-23T22:16:43.107Z,14.20
2019-02-23T22:19:12.681Z,13.00
2019-02-23T22:21:42.447Z,13.37
2019-02-23T22:24:12.036Z,13.03
2019-02-23T22:26:41.781Z,14.23
2019-02-23T22:29:12.595Z,16.43
2019-02-23T22:31:44.000Z,13.90
2019-02-23T22:34:13.893Z,14.63
2019-02-23T22:36:43.638Z,12.70
2019-02-23T22:39:13.368Z,14.73
2019-02-23T22:41:49.426Z,14.80
2019-02-23T22:44:14.303Z,12.17
2019-02-23T22:46:43.919Z,15.17
2019-02-23T22:49:13.653Z,12.97
2019-02-23T22:51:43.276Z,11.67
2019-02-23T22:54:12.970Z,11.70
2019-02-23T22:56:42.693Z,11.87
2019-02-23T22:59:12.398Z,10.17
2019-02-23T23:01:42.067Z,11.43
2019-02-23T23:04:11.860Z,11.47
2019-02-23T23:06:41.587Z,10.37
2019-02-23T23:09:14.975Z,9.93
2019-02-23T23:11:44.727Z,10.90
2019-02-23T23:14:14.270Z,10.73
2019-02-23T23:16:43.878Z,11.63
2019-02-23T23:19:13.714Z,13.73
2019-02-23T23:21:45.467Z,19.53
2019-02-23T23:24:15.177Z,17.87
2019-02-23T23:26:46.627Z,21.03
2019-02-23T23:29:16.250Z,20.97
2019-02-23T23:31:45.728Z,21.70
2019-02-23T23:34:15.588Z,23.37
2019-02-23T23:36:45.342Z,29.00
2019-02-23T23:39:14.838Z,28.40
2019-02-23T23:41:44.584Z,32.17
2019-02-23T23:44:14.190Z,27.50
2019-02-23T23:46:43.933Z,16.00
2019-02-23T23:49:13.639Z,12.13
2019-02-23T23:51:43.310Z,9.97
2019-02-23T23:54:12.955Z,8.50
2019-02-23T23:56:42.588Z,7.40
2019-02-23T23:59:12.260Z,7.63
